createdAt,value
2019-04-28T00:00:02.974Z,101157.58
2019-04-28T00:02:31.178Z,101164.00
2019-04-28T00:05:00.996Z,101161.25
2019-04-28T00:07:29.702Z,101163.20
2019-04-28T00:09:57.928Z,101161.56
2019-04-28T00:12:26.480Z,101171.77
2019-04-28T00:14:54.676Z,101164.80
2019-04-28T00:17:23.047Z,101164.19
2019-04-28T00:19:51.780Z,101161.69
2019-04-28T00:22:24.541Z,101160.04
2019-04-28T00:24:54.414Z,101169.71
2019-04-28T00:27:22.638Z,101168.33
2019-04-28T00:29:51.851Z,101173.58
2019-04-28T00:32:20.958Z,101179.06
2019-04-28T00:34:51.127Z,101177.41
2019-04-28T00:37:24.049Z,101177.09
2019-04-28T00:39:52.316Z,101183.16
2019-04-28T00:42:22.532Z,101179.33
2019-04-28T00:44:51.510Z,101179.91
2019-04-28T00:47:21.087Z,101181.83
2019-04-28T00:49:49.337Z,101181.29
2019-04-28T00:52:18.303Z,101184.31
2019-04-28T00:54:46.955Z,101178.73
2019-04-28T00:57:15.155Z,101175.39
2019-04-28T00:59:54.063Z,101177.58
2019-04-28T01:02:24.509Z,101189.42
2019-04-28T01:04:53.037Z,101189.42
2019-04-28T01:07:21.417Z,101181.41
2019-04-28T01:09:51.498Z,101184.76
2019-04-28T01:12:21.210Z,101190.87
2019-04-28T01:14:50.322Z,101180.66
2019-04-28T01:17:23.948Z,101187.56
2019-04-28T01:19:56.528Z,101187.89
2019-04-28T01:22:24.724Z,101192.34
2019-04-28T01:24:53.273Z,101190.70
2019-04-28T01:27:32.307Z,101190.44
2019-04-28T01:30:07.843Z,101190.44
2019-04-28T01:32:49.828Z,101202.87
2019-04-28T01:35:20.856Z,101205.64
2019-04-28T01:37:48.082Z,101199.84
2019-04-28T01:40:16.306Z,101195.69
2019-04-28T01:42:44.790Z,101195.37
2019-04-28T01:45:12.988Z,101195.37
2019-04-28T01:47:41.214Z,101213.56
2019-04-28T01:50:10.256Z,101213.49
2019-04-28T01:52:39.943Z,101211.53
2019-04-28T01:55:09.980Z,101215.88
2019-04-28T01:57:39.989Z,101218.59
2019-04-28T02:00:22.340Z,101217.75
2019-04-28T02:02:40.745Z,101223.00
2019-04-28T02:05:09.711Z,101227.14
2019-04-28T02:07:38.030Z,101224.08
2019-04-28T02:10:06.994Z,101227.95
2019-04-28T02:12:35.204Z,101229.91
2019-04-28T02:15:04.828Z,101231.56
2019-04-28T02:17:33.021Z,101229.92
2019-04-28T02:20:01.289Z,101227.16
2019-04-28T02:22:34.514Z,101227.42
2019-04-28T02:25:02.729Z,101224.91
2019-04-28T02:27:30.944Z,101223.80
2019-04-28T02:30:00.129Z,101224.23
2019-04-28T02:32:31.022Z,101225.34
2019-04-28T02:35:01.435Z,101241.06
2019-04-28T02:37:30.688Z,101241.02
2019-04-28T02:40:00.515Z,101234.63
2019-04-28T02:42:30.935Z,101237.02
2019-04-28T02:45:00.506Z,101233.45
2019-04-28T02:47:33.649Z,101233.19
2019-04-28T02:50:12.501Z,101245.41
2019-04-28T02:53:01.695Z,101245.13
2019-04-28T02:55:31.597Z,101247.33
2019-04-28T02:58:01.625Z,101244.56
2019-04-28T03:00:31.760Z,101245.72
2019-04-28T03:03:01.474Z,101245.72
2019-04-28T03:05:30.288Z,101252.06
2019-04-28T03:08:01.034Z,101250.94
2019-04-28T03:10:31.166Z,101254.48
2019-04-28T03:13:01.041Z,101253.11
2019-04-28T03:15:30.409Z,101256.72
2019-04-28T03:18:01.464Z,101267.23
2019-04-28T03:20:30.536Z,101260.27
2019-04-28T03:23:00.909Z,101266.92
2019-04-28T03:25:33.350Z,101265.23
2019-04-28T03:28:02.297Z,101263.56
2019-04-28T03:30:53.769Z,101262.45
2019-04-28T03:33:25.704Z,101264.63
2019-04-28T03:35:53.582Z,101265.69
2019-04-28T03:38:22.439Z,101260.42
2019-04-28T03:40:51.366Z,101263.98
2019-04-28T03:43:21.238Z,101265.64
2019-04-28T03:46:03.444Z,101263.13
2019-04-28T03:48:33.384Z,101264.52
2019-04-28T03:51:00.809Z,101278.83
2019-04-28T03:53:31.187Z,101277.39
2019-04-28T03:56:01.612Z,101272.94
2019-04-28T03:58:31.064Z,101275.42
2019-04-28T04:01:02.722Z,101272.89
2019-04-28T04:03:30.539Z,101273.14
2019-04-28T04:06:00.775Z,101279.20
2019-04-28T04:08:30.947Z,101277.23
2019-04-28T04:11:06.573Z,101278.92
2019-04-28T04:13:36.450Z,101281.94
2019-04-28T04:16:11.856Z,101284.11
2019-04-28T04:18:41.708Z,101281.34
2019-04-28T04:21:11.078Z,101279.40
2019-04-28T04:23:41.095Z,101278.33
2019-04-28T04:26:11.761Z,101280.45
2019-04-28T04:28:41.650Z,101279.91
2019-04-28T04:31:10.443Z,101188.55
2019-04-28T04:33:41.050Z,101284.33
2019-04-28T04:36:11.490Z,101279.66
2019-04-28T04:38:43.296Z,101285.17
2019-04-28T04:41:11.210Z,101289.62
2019-04-28T04:43:41.529Z,101287.66
2019-04-28T04:46:14.554Z,101302.25
2019-04-28T04:48:43.913Z,101298.59
2019-04-28T04:51:12.394Z,101303.83
2019-04-28T04:53:40.941Z,101309.62
2019-04-28T04:56:10.524Z,101313.77
2019-04-28T04:58:40.726Z,101312.92
2019-04-28T05:01:11.132Z,101313.52
2019-04-28T05:03:41.658Z,101316.53
2019-04-28T05:06:29.690Z,101319.80
2019-04-28T05:08:57.726Z,101321.66
2019-04-28T05:11:25.936Z,101323.88
2019-04-28T05:13:54.158Z,101324.09
2019-04-28T05:16:23.009Z,101330.47
2019-04-28T05:18:51.488Z,101329.09
2019-04-28T05:21:21.549Z,101339.59
2019-04-28T05:23:53.877Z,101340.12
2019-04-28T05:26:22.658Z,101346.75
2019-04-28T05:28:53.324Z,101344.77
2019-04-28T05:31:24.301Z,101352.27
2019-04-28T05:33:51.042Z,101352.61
2019-04-28T05:36:20.407Z,101359.03
2019-04-28T05:38:49.637Z,101354.84
2019-04-28T05:41:19.630Z,101352.02
2019-04-28T05:43:47.952Z,101358.80
2019-04-28T05:46:16.192Z,101363.19
2019-04-28T05:48:55.279Z,101362.13
2019-04-28T05:51:34.084Z,101364.91
2019-04-28T05:54:13.136Z,101370.48
2019-04-28T05:56:52.153Z,101372.84
2019-04-28T05:59:22.274Z,101369.89
2019-04-28T06:01:58.135Z,101372.73
2019-04-28T06:04:27.721Z,101373.33
2019-04-28T06:06:59.664Z,101376.43
2019-04-28T06:09:35.859Z,101379.76
2019-04-28T06:12:06.054Z,101382.80
2019-04-28T06:14:34.277Z,101386.29
2019-04-28T06:17:04.106Z,101392.31
2019-04-28T06:19:32.567Z,101397.59
2019-04-28T06:22:00.849Z,101396.80
2019-04-28T06:24:29.166Z,101398.24
2019-04-28T06:26:57.385Z,101399.87
2019-04-28T06:29:26.349Z,101413.67
2019-04-28T06:31:54.553Z,101414.27
2019-04-28T06:34:22.894Z,101424.81
2019-04-28T06:36:51.407Z,101429.55
2019-04-28T06:39:19.753Z,101437.02
2019-04-28T06:41:48.090Z,101436.27
2019-04-28T06:44:16.545Z,101438.83
2019-04-28T06:46:44.777Z,101436.39
2019-04-28T06:49:12.967Z,101438.83
2019-04-28T06:51:41.190Z,101438.05
2019-04-28T06:54:09.421Z,101442.63
2019-04-28T06:56:37.620Z,101444.42
2019-04-28T06:59:05.832Z,101441.79
2019-04-28T07:01:34.493Z,101441.25
2019-04-28T07:04:02.710Z,101446.72
2019-04-28T07:06:30.932Z,101453.59
2019-04-28T07:08:59.125Z,101458.64
2019-04-28T07:11:27.697Z,101453.30
2019-04-28T07:13:55.913Z,101454.88
2019-04-28T07:16:24.203Z,101465.32
2019-04-28T07:18:52.426Z,101472.09
2019-04-28T07:21:22.288Z,101477.68
2019-04-28T07:23:50.502Z,101479.66
2019-04-28T07:26:18.707Z,101397.06
2019-04-28T07:28:47.270Z,101479.34
2019-04-28T07:31:16.264Z,101481.29
2019-04-28T07:33:44.463Z,101491.30
2019-04-28T07:36:12.946Z,101499.64
2019-04-28T07:38:41.149Z,101499.68
2019-04-28T07:41:09.666Z,101495.31
2019-04-28T07:43:37.886Z,101502.32
2019-04-28T07:46:06.125Z,101496.98
2019-04-28T07:48:34.308Z,101482.74
2019-04-28T07:51:02.531Z,101497.61
2019-04-28T07:53:32.384Z,101496.98
2019-04-28T07:56:00.987Z,101499.42
2019-04-28T07:58:29.544Z,101496.78
2019-04-28T08:00:57.813Z,101498.50
2019-04-28T08:03:26.307Z,101503.49
2019-04-28T08:05:54.507Z,101508.05
2019-04-28T08:08:22.723Z,101522.91
2019-04-28T08:10:50.933Z,101520.53
2019-04-28T08:13:19.175Z,101526.72
2019-04-28T08:15:47.378Z,101534.47
2019-04-28T08:18:15.595Z,101546.17
2019-04-28T08:20:43.829Z,101545.92
2019-04-28T08:23:12.314Z,101552.30
2019-04-28T08:25:40.790Z,101558.77
2019-04-28T08:28:09.091Z,101561.14
2019-04-28T08:30:37.692Z,101568.17
2019-04-28T08:33:16.360Z,101569.95
2019-04-28T08:35:44.568Z,101579.28
2019-04-28T08:38:12.853Z,101571.69
2019-04-28T08:40:41.427Z,101574.09
2019-04-28T08:43:09.732Z,101581.20
2019-04-28T08:45:37.943Z,101585.78
2019-04-28T08:48:06.175Z,101587.50
2019-04-28T08:50:34.401Z,101594.55
2019-04-28T08:53:02.741Z,101592.93
2019-04-28T08:55:31.768Z,101596.23
2019-04-28T08:57:59.967Z,101607.27
2019-04-28T09:00:28.540Z,101608.02
2019-04-28T09:02:56.851Z,101609.09
2019-04-28T09:05:25.086Z,101601.20
2019-04-28T09:07:53.572Z,101594.86
2019-04-28T09:10:22.052Z,101607.44
2019-04-28T09:12:50.350Z,101606.64
2019-04-28T09:15:18.582Z,101597.52
2019-04-28T09:17:46.796Z,101600.30
2019-04-28T09:20:15.013Z,101596.23
2019-04-28T09:22:43.226Z,101600.63
2019-04-28T09:25:11.436Z,101592.00
2019-04-28T09:27:39.672Z,101597.77
2019-04-28T09:30:07.884Z,101608.01
2019-04-28T09:32:37.028Z,101612.68
2019-04-28T09:35:08.064Z,101619.70
2019-04-28T09:37:36.652Z,101627.67
2019-04-28T09:40:06.662Z,101635.34
2019-04-28T09:42:36.506Z,101636.28
2019-04-28T09:45:24.518Z,101643.75
2019-04-28T09:47:52.744Z,101641.86
2019-04-28T09:50:20.982Z,101652.54
2019-04-28T09:52:49.188Z,101653.45
2019-04-28T09:55:17.653Z,101651.50
2019-04-28T09:57:45.859Z,101653.73
2019-04-28T10:00:14.123Z,101655.78
2019-04-28T10:02:42.353Z,101654.94
2019-04-28T10:05:10.552Z,101651.63
2019-04-28T10:07:38.782Z,101663.89
2019-04-28T10:10:07.634Z,101660.95
2019-04-28T10:12:35.843Z,101658.42
2019-04-28T10:15:08.420Z,101656.41
2019-04-28T10:17:36.705Z,101661.38
2019-04-28T10:20:06.070Z,101666.56
2019-04-28T10:22:34.272Z,101659.55
2019-04-28T10:25:03.000Z,101660.05
2019-04-28T10:27:31.218Z,101660.57
2019-04-28T10:29:59.763Z,101653.34
2019-04-28T10:32:27.975Z,101661.03
2019-04-28T10:34:56.526Z,101666.10
2019-04-28T10:37:25.021Z,101666.08
2019-04-28T10:39:58.088Z,101674.03
2019-04-28T10:42:26.302Z,101669.25
2019-04-28T10:44:54.669Z,101677.53
2019-04-28T10:47:22.880Z,101670.89
2019-04-28T10:49:51.091Z,101677.47
2019-04-28T10:52:19.322Z,101676.80
2019-04-28T10:54:47.533Z,101678.86
2019-04-28T10:57:16.172Z,101683.77
2019-04-28T10:59:44.389Z,101686.00
2019-04-28T11:02:12.909Z,101686.11
2019-04-28T11:04:42.775Z,101690.85
2019-04-28T11:07:15.330Z,101681.06
2019-04-28T11:09:45.384Z,101694.52
2019-04-28T11:12:15.230Z,101693.23
2019-04-28T11:14:44.284Z,101690.75
2019-04-28T11:17:12.772Z,101692.41
2019-04-28T11:19:40.993Z,101695.97
2019-04-28T11:22:09.276Z,101694.09
2019-04-28T11:24:37.830Z,101690.36
2019-04-28T11:27:06.134Z,101692.02
2019-04-28T11:29:35.100Z,101694.06
2019-04-28T11:32:04.275Z,101690.04
2019-04-28T11:34:49.426Z,101684.55
2019-04-28T11:37:17.941Z,101694.85
2019-04-28T11:39:46.134Z,101693.90
2019-04-28T11:42:14.433Z,101689.94
2019-04-28T11:44:42.978Z,101694.60
2019-04-28T11:47:12.824Z,101692.67
2019-04-28T11:49:41.403Z,101702.77
2019-04-28T11:52:09.739Z,101701.56
2019-04-28T11:54:37.960Z,101714.74
2019-04-28T11:57:06.503Z,101712.00
2019-04-28T11:59:34.715Z,101718.94
2019-04-28T12:02:04.279Z,101718.64
2019-04-28T12:04:32.557Z,101718.67
2019-04-28T12:07:00.768Z,101712.88
2019-04-28T12:09:39.861Z,101722.39
2019-04-28T12:12:09.768Z,101723.03
2019-04-28T12:14:48.570Z,101727.59
2019-04-28T12:17:21.383Z,101718.52
2019-04-28T12:19:51.322Z,101723.05
2019-04-28T12:22:19.540Z,101725.78
2019-04-28T12:24:47.750Z,101730.85
2019-04-28T12:27:16.071Z,101730.35
2019-04-28T12:29:44.274Z,101730.68
2019-04-28T12:32:12.805Z,101729.89
2019-04-28T12:34:41.038Z,101737.75
2019-04-28T12:37:09.254Z,101733.40
2019-04-28T12:39:37.461Z,101735.17
2019-04-28T12:42:05.677Z,101736.91
2019-04-28T12:44:34.168Z,101738.68
2019-04-28T12:47:02.381Z,101739.83
2019-04-28T12:49:32.247Z,101744.31
2019-04-28T12:52:00.471Z,101747.09
2019-04-28T12:54:30.393Z,101734.00
2019-04-28T12:56:58.965Z,101739.89
2019-04-28T12:59:28.839Z,101745.50
2019-04-28T13:02:04.799Z,101739.66
2019-04-28T13:04:43.515Z,101743.58
2019-04-28T13:07:12.001Z,101750.56
2019-04-28T13:09:40.497Z,101744.42
2019-04-28T13:12:08.872Z,101759.73
2019-04-28T13:14:37.043Z,101751.08
2019-04-28T13:17:05.236Z,101753.80
2019-04-28T13:19:33.441Z,101755.73
2019-04-28T13:22:01.702Z,101762.13
2019-04-28T13:24:30.259Z,101759.54
2019-04-28T13:26:58.487Z,101762.61
2019-04-28T13:29:26.692Z,101762.92
2019-04-28T13:31:54.992Z,101762.44
2019-04-28T13:34:24.864Z,101764.44
2019-04-28T13:36:53.071Z,101767.56
2019-04-28T13:39:22.966Z,101774.25
2019-04-28T13:41:51.175Z,101768.38
2019-04-28T13:44:21.015Z,101767.22
2019-04-28T13:46:49.258Z,101766.70
2019-04-28T13:49:18.703Z,101763.64
2019-04-28T13:51:46.893Z,101760.64
2019-04-28T13:54:16.775Z,101768.77
2019-04-28T13:56:45.382Z,101768.50
2019-04-28T13:59:16.738Z,101771.34
2019-04-28T14:01:55.457Z,101772.95
2019-04-28T14:04:37.166Z,101768.77
2019-04-28T14:07:05.481Z,101770.14
2019-04-28T14:09:33.717Z,101771.53
2019-04-28T14:12:01.906Z,101768.47
2019-04-28T14:14:30.126Z,101771.80
2019-04-28T14:16:58.394Z,101770.14
2019-04-28T14:19:26.971Z,101768.28
2019-04-28T14:21:55.619Z,101769.42
2019-04-28T14:24:23.902Z,101769.14
2019-04-28T14:26:52.418Z,101770.83
2019-04-28T14:29:20.584Z,101768.31
2019-04-28T14:31:48.829Z,101758.52
2019-04-28T14:34:17.004Z,101765.78
2019-04-28T14:36:45.314Z,101766.07
2019-04-28T14:39:14.088Z,101767.39
2019-04-28T14:41:42.290Z,101766.20
2019-04-28T14:44:10.494Z,101766.41
2019-04-28T14:46:38.919Z,101764.23
2019-04-28T14:49:07.117Z,101769.81
2019-04-28T14:51:35.604Z,101766.44
2019-04-28T14:54:03.797Z,101763.39
2019-04-28T14:56:32.030Z,101776.78
2019-04-28T14:59:00.230Z,101772.60
2019-04-28T15:01:30.415Z,101766.45
2019-04-28T15:04:00.642Z,101775.07
2019-04-28T15:06:30.859Z,101773.72
2019-04-28T15:09:16.323Z,101781.30
2019-04-28T15:11:46.260Z,101779.63
2019-04-28T15:14:14.495Z,101774.62
2019-04-28T15:16:42.712Z,101770.16
2019-04-28T15:19:10.918Z,101778.77
2019-04-28T15:21:39.106Z,101777.02
2019-04-28T15:24:07.373Z,101778.63
2019-04-28T15:26:35.574Z,101776.11
2019-04-28T15:29:03.788Z,101779.96
2019-04-28T15:31:32.008Z,101788.25
2019-04-28T15:34:00.212Z,101786.81
2019-04-28T15:36:28.422Z,101787.86
2019-04-28T15:38:56.789Z,101789.00
2019-04-28T15:41:25.097Z,101794.29
2019-04-28T15:43:53.359Z,101793.36
2019-04-28T15:46:21.627Z,101788.38
2019-04-28T15:48:49.827Z,101796.66
2019-04-28T15:51:18.217Z,101796.11
2019-04-28T15:53:48.075Z,101793.70
2019-04-28T15:56:18.009Z,101799.59
2019-04-28T15:58:46.205Z,101800.41
2019-04-28T16:01:14.742Z,101799.87
2019-04-28T16:03:42.948Z,101801.56
2019-04-28T16:06:11.478Z,101802.98
2019-04-28T16:08:39.973Z,101799.34
2019-04-28T16:11:08.538Z,101728.47
2019-04-28T16:13:37.050Z,101809.26
2019-04-28T16:16:05.251Z,101800.58
2019-04-28T16:18:33.776Z,101805.00
2019-04-28T16:21:01.999Z,101800.28
2019-04-28T16:23:30.536Z,101807.53
2019-04-28T16:25:58.732Z,101801.16
2019-04-28T16:28:26.955Z,101797.55
2019-04-28T16:30:55.155Z,101806.17
2019-04-28T16:33:23.473Z,101805.88
2019-04-28T16:35:52.023Z,101810.34
2019-04-28T16:38:20.230Z,101813.16
2019-04-28T16:40:50.322Z,101805.35
2019-04-28T16:43:19.100Z,101813.97
2019-04-28T16:45:47.421Z,101819.21
2019-04-28T16:48:15.963Z,101822.20
2019-04-28T16:50:44.172Z,101821.91
2019-04-28T16:53:12.386Z,101821.06
2019-04-28T16:55:42.479Z,101821.33
2019-04-28T16:58:18.202Z,101820.48
2019-04-28T17:01:00.899Z,101820.39
2019-04-28T17:03:33.488Z,101823.08
2019-04-28T17:06:01.966Z,101819.48
2019-04-28T17:08:30.446Z,101831.17
2019-04-28T17:10:58.848Z,101840.70
2019-04-28T17:13:27.062Z,101836.27
2019-04-28T17:15:55.570Z,101845.66
2019-04-28T17:18:24.157Z,101844.20
2019-04-28T17:20:54.447Z,101839.42
2019-04-28T17:23:22.859Z,101849.92
2019-04-28T17:25:51.350Z,101850.67
2019-04-28T17:28:19.647Z,101851.13
2019-04-28T17:30:47.856Z,101847.16
2019-04-28T17:33:17.328Z,101850.70
2019-04-28T17:35:45.537Z,101858.42
2019-04-28T17:38:14.278Z,101860.31
2019-04-28T17:40:42.474Z,101863.32
2019-04-28T17:43:11.010Z,101860.73
2019-04-28T17:45:39.507Z,101866.47
2019-04-28T17:48:15.345Z,101873.02
2019-04-28T17:50:45.441Z,101870.73
2019-04-28T17:53:14.806Z,101872.25
2019-04-28T17:55:43.109Z,101871.88
2019-04-28T17:58:11.318Z,101885.34
2019-04-28T18:00:49.981Z,101880.19
2019-04-28T18:03:36.687Z,101878.63
2019-04-28T18:06:18.865Z,101882.38
2019-04-28T18:08:47.102Z,101890.27
2019-04-28T18:11:15.916Z,101889.25
2019-04-28T18:13:44.398Z,101891.59
2019-04-28T18:16:14.365Z,101890.87
2019-04-28T18:18:44.431Z,101894.86
2019-04-28T18:21:12.639Z,101897.44
2019-04-28T18:23:40.840Z,101901.97
2019-04-28T18:26:09.305Z,101900.41
2019-04-28T18:28:37.527Z,101901.34
2019-04-28T18:31:22.327Z,101905.89
2019-04-28T18:34:08.734Z,101904.95
2019-04-28T18:36:41.232Z,101909.53
2019-04-28T18:39:23.394Z,101915.23
2019-04-28T18:42:08.649Z,101918.13
2019-04-28T18:44:37.621Z,101925.44
2019-04-28T18:47:06.120Z,101923.86
2019-04-28T18:49:34.346Z,101928.14
2019-04-28T18:52:02.574Z,101935.50
2019-04-28T18:54:30.776Z,101937.31
2019-04-28T18:56:59.375Z,101936.36
2019-04-28T18:59:27.569Z,101940.38
2019-04-28T19:02:00.689Z,101941.63
2019-04-28T19:04:29.205Z,101955.05
2019-04-28T19:07:04.862Z,101958.06
2019-04-28T19:09:31.800Z,101957.39
2019-04-28T19:12:01.775Z,101957.56
2019-04-28T19:14:31.927Z,101958.59
2019-04-28T19:17:18.518Z,101964.30
2019-04-28T19:19:47.010Z,101963.38
2019-04-28T19:22:15.492Z,101964.94
2019-04-28T19:24:43.804Z,101970.97
2019-04-28T19:27:12.341Z,101971.91
2019-04-28T19:29:40.558Z,101971.77
2019-04-28T19:32:09.117Z,101971.09
2019-04-28T19:34:37.324Z,101979.80
2019-04-28T19:37:05.558Z,101981.03
2019-04-28T19:39:33.756Z,101984.04
2019-04-28T19:42:02.798Z,101991.20
2019-04-28T19:44:31.305Z,101994.09
2019-04-28T19:46:59.890Z,101992.31
2019-04-28T19:49:28.111Z,101992.27
2019-04-28T19:51:56.349Z,101986.83
2019-04-28T19:54:26.321Z,101994.88
2019-04-28T19:57:08.356Z,101995.65
2019-04-28T19:59:54.661Z,101999.72
2019-04-28T20:02:23.850Z,101996.05
2019-04-28T20:04:52.338Z,101988.13
2019-04-28T20:07:20.809Z,101991.06
2019-04-28T20:09:49.294Z,101991.55
2019-04-28T20:12:17.581Z,101999.52
2019-04-28T20:14:46.151Z,101997.23
2019-04-28T20:17:14.349Z,101999.67
2019-04-28T20:19:42.556Z,102004.59
2019-04-28T20:22:10.752Z,102001.45
2019-04-28T20:24:46.969Z,102005.59
2019-04-28T20:27:08.997Z,102010.75
2019-04-28T20:29:37.559Z,102013.67
2019-04-28T20:32:06.029Z,102018.50
2019-04-28T20:34:34.510Z,102020.09
2019-04-28T20:37:04.372Z,102017.80
2019-04-28T20:39:33.546Z,102021.17
2019-04-28T20:42:19.674Z,102021.17
2019-04-28T20:44:47.891Z,102025.88
2019-04-28T20:47:16.211Z,102027.41
2019-04-28T20:49:44.507Z,102027.41
2019-04-28T20:52:13.026Z,102025.38
2019-04-28T20:54:41.992Z,102029.47
2019-04-28T20:57:10.512Z,102034.05
2019-04-28T20:59:39.186Z,102037.58
2019-04-28T21:02:07.442Z,102036.67
2019-04-28T21:04:36.041Z,102036.05
2019-04-28T21:07:04.249Z,102048.39
2019-04-28T21:09:32.448Z,102050.22
2019-04-28T21:12:01.002Z,102055.12
2019-04-28T21:14:29.189Z,102052.59
2019-04-28T21:16:57.732Z,102056.64
2019-04-28T21:19:25.937Z,102056.88
2019-04-28T21:21:54.516Z,102054.36
2019-04-28T21:24:22.796Z,102061.17
2019-04-28T21:26:51.962Z,102066.92
2019-04-28T21:29:20.443Z,102065.74
2019-04-28T21:31:48.665Z,102070.36
2019-04-28T21:34:16.853Z,102071.73
2019-04-28T21:36:45.434Z,102071.94
2019-04-28T21:39:13.642Z,102074.02
2019-04-28T21:41:42.130Z,102076.92
2019-04-28T21:44:21.179Z,102074.50
2019-04-28T21:46:51.407Z,102073.59
2019-04-28T21:49:23.656Z,102073.50
2019-04-28T21:51:51.892Z,102077.54
2019-04-28T21:54:20.523Z,102075.77
2019-04-28T21:56:48.992Z,102080.14
2019-04-28T21:59:17.192Z,102076.96
2019-04-28T22:01:45.453Z,102081.86
2019-04-28T22:04:13.925Z,102083.90
2019-04-28T22:06:42.406Z,102083.90
2019-04-28T22:09:10.820Z,102083.61
2019-04-28T22:11:39.385Z,102088.50
2019-04-28T22:14:07.566Z,102086.50
2019-04-28T22:16:35.782Z,102085.88
2019-04-28T22:19:03.985Z,102088.53
2019-04-28T22:21:32.485Z,102091.00
2019-04-28T22:24:05.367Z,102089.00
2019-04-28T22:26:43.826Z,102091.43
2019-04-28T22:29:13.073Z,102091.43
2019-04-28T22:31:41.453Z,102087.29
2019-04-28T22:34:09.675Z,102086.01
2019-04-28T22:36:37.869Z,102087.91
2019-04-28T22:39:07.913Z,102083.78
2019-04-28T22:41:36.810Z,102087.91
2019-04-28T22:44:05.382Z,102090.25
2019-04-28T22:46:33.621Z,102090.54
2019-04-28T22:49:03.787Z,102087.48
2019-04-28T22:51:32.259Z,102086.41
2019-04-28T22:54:02.416Z,102088.02
2019-04-28T22:56:34.680Z,102082.17
2019-04-28T22:59:17.209Z,102081.64
2019-04-28T23:01:49.993Z,102083.48
2019-04-28T23:04:19.876Z,102091.95
2019-04-28T23:06:48.085Z,102091.66
2019-04-28T23:09:17.988Z,102096.84
2019-04-28T23:11:46.189Z,102095.47
2019-04-28T23:14:14.467Z,102095.70
2019-04-28T23:16:42.672Z,102092.61
2019-04-28T23:19:12.531Z,102095.93
2019-04-28T23:21:48.375Z,102090.94
2019-04-28T23:24:17.213Z,102090.61
2019-04-28T23:26:45.418Z,102089.23
2019-04-28T23:29:14.298Z,102082.34
2019-04-28T23:31:42.522Z,102089.23
2019-04-28T23:34:11.095Z,102087.55
2019-04-28T23:36:39.300Z,102087.69
2019-04-28T23:39:07.784Z,102085.69
2019-04-28T23:41:56.265Z,102091.33
2019-04-28T23:44:24.485Z,102090.48
2019-04-28T23:46:57.194Z,102095.14
2019-04-28T23:49:26.736Z,102091.98
2019-04-28T23:52:08.248Z,102091.13
2019-04-28T23:54:38.102Z,102096.84
2019-04-28T23:57:07.376Z,102097.83
2019-04-28T23:59:35.688Z,102098.02
